createdAt,value
2023-04-14T00:03:34.096Z,7.13
2023-04-14T00:08:35.690Z,5.72
2023-04-14T00:13:37.154Z,6.97
2023-04-14T00:18:38.469Z,5.53
2023-04-14T00:23:39.778Z,6.28
2023-04-14T00:28:41.312Z,6.03
2023-04-14T00:33:42.670Z,7.43
2023-04-14T00:38:44.009Z,5.18
2023-04-14T00:43:45.451Z,5.32
2023-04-14T00:48:47.345Z,5.65
2023-04-14T00:53:51.469Z,5.10
2023-04-14T00:58:53.726Z,5.32
2023-04-14T01:03:56.432Z,6.68
2023-04-14T01:08:59.600Z,7.07
2023-04-14T01:14:10.605Z,6.55
2023-04-14T01:19:36.944Z,6.30
2023-04-14T01:25:06.852Z,6.13
2023-04-14T01:30:28.267Z,6.07
2023-04-14T01:35:45.892Z,5.88
2023-04-14T01:40:50.355Z,7.15
2023-04-14T01:45:56.503Z,5.88
2023-04-14T01:50:58.777Z,6.15
2023-04-14T01:56:01.708Z,6.40
2023-04-14T02:01:04.422Z,6.70
2023-04-14T02:06:07.441Z,6.25
2023-04-14T02:11:12.938Z,6.43
2023-04-14T02:16:15.189Z,6.15
2023-04-14T02:21:18.337Z,6.43
2023-04-14T02:26:23.916Z,5.75
2023-04-14T02:31:29.053Z,5.70
2023-04-14T02:36:34.697Z,8.48
2023-04-14T02:41:38.259Z,6.03
2023-04-14T02:46:42.405Z,6.60
2023-04-14T02:51:46.179Z,6.37
2023-04-14T02:56:48.209Z,5.32
2023-04-14T03:01:50.765Z,4.75
2023-04-14T03:06:54.572Z,4.03
2023-04-14T03:11:57.375Z,4.85
2023-04-14T03:16:58.965Z,5.60
2023-04-14T03:22:00.857Z,4.80
2023-04-14T03:27:08.777Z,4.85
2023-04-14T03:32:11.729Z,5.70
2023-04-14T03:37:21.108Z,8.23
2023-04-14T03:42:26.029Z,11.80
2023-04-14T03:47:31.685Z,11.75
2023-04-14T03:52:34.633Z,10.68
2023-04-14T03:57:37.675Z,12.15
2023-04-14T04:02:40.252Z,11.55
2023-04-14T04:07:44.662Z,10.07
2023-04-14T04:12:48.655Z,10.20
2023-04-14T04:17:52.037Z,10.63
2023-04-14T04:22:56.744Z,10.25
2023-04-14T04:27:59.625Z,9.70
2023-04-14T04:33:04.765Z,13.32
2023-04-14T04:38:06.794Z,16.70
2023-04-14T04:43:08.214Z,16.90
2023-04-14T04:48:09.545Z,19.05
2023-04-14T04:53:12.122Z,18.38
2023-04-14T04:58:13.416Z,17.85
2023-04-14T05:03:14.836Z,17.58
2023-04-14T05:08:16.681Z,19.63
2023-04-14T05:13:18.035Z,15.30
2023-04-14T05:18:19.456Z,15.98
2023-04-14T05:23:20.884Z,17.27
2023-04-14T05:28:22.284Z,19.10
2023-04-14T05:33:23.665Z,19.55
2023-04-14T05:38:24.975Z,19.60
2023-04-14T05:43:26.397Z,17.83
2023-04-14T05:48:30.365Z,14.02
2023-04-14T05:53:31.703Z,14.80
2023-04-14T05:58:32.985Z,16.77
2023-04-14T06:03:35.410Z,12.43
2023-04-14T06:08:37.924Z,13.02
2023-04-14T06:13:39.232Z,15.30
2023-04-14T06:18:40.565Z,19.85
2023-04-14T06:23:41.986Z,20.15
2023-04-14T06:28:44.215Z,13.52
2023-04-14T06:33:45.996Z,16.58
2023-04-14T06:38:47.297Z,16.17
2023-04-14T06:43:48.593Z,17.27
2023-04-14T06:48:49.847Z,14.95
2023-04-14T06:53:51.433Z,19.40
2023-04-14T06:58:52.822Z,16.23
2023-04-14T07:03:54.206Z,11.55
2023-04-14T07:08:56.259Z,12.65
2023-04-14T07:13:57.615Z,12.85
2023-04-14T07:18:58.889Z,14.40
2023-04-14T07:24:00.653Z,17.95
2023-04-14T07:29:02.193Z,19.70
2023-04-14T07:34:03.686Z,16.15
2023-04-14T07:39:05.137Z,21.55
2023-04-14T07:44:06.743Z,20.33
2023-04-14T07:49:08.328Z,16.92
2023-04-14T07:54:09.782Z,18.77
2023-04-14T07:59:11.083Z,20.05
2023-04-14T08:04:12.582Z,18.58
2023-04-14T08:09:14.748Z,14.50
2023-04-14T08:14:16.069Z,15.80
2023-04-14T08:19:17.358Z,17.52
2023-04-14T08:24:18.664Z,14.57
2023-04-14T08:29:21.435Z,14.38
2023-04-14T08:34:28.344Z,14.85
2023-04-14T08:39:30.164Z,15.38
2023-04-14T08:44:32.048Z,16.13
2023-04-14T08:50:12.832Z,15.43
2023-04-14T08:55:15.966Z,18.88
2023-04-14T09:00:19.363Z,17.30
2023-04-14T09:05:20.850Z,15.93
2023-04-14T09:10:22.988Z,15.95
2023-04-14T09:15:27.309Z,17.20
2023-04-14T09:20:35.806Z,18.10
2023-04-14T09:25:42.316Z,17.25
2023-04-14T09:30:43.731Z,17.27
2023-04-14T09:35:48.685Z,17.23
2023-04-14T09:40:50.126Z,16.15
2023-04-14T09:45:51.971Z,16.10
2023-04-14T09:51:09.664Z,15.98
2023-04-14T09:56:12.383Z,15.70
2023-04-14T10:01:17.293Z,18.38
2023-04-14T10:06:20.626Z,16.33
2023-04-14T10:11:22.918Z,15.53
2023-04-14T10:16:25.579Z,19.42
2023-04-14T10:21:27.867Z,14.50
2023-04-14T10:26:30.030Z,13.43
2023-04-14T10:31:34.816Z,11.13
2023-04-14T10:36:37.087Z,10.70
2023-04-14T10:41:49.260Z,11.35
2023-04-14T10:46:52.057Z,13.07
2023-04-14T10:51:53.674Z,13.30
2023-04-14T10:57:14.567Z,10.77
2023-04-14T11:02:30.873Z,9.05
2023-04-14T11:07:47.031Z,7.70
2023-04-14T11:12:54.114Z,9.48
2023-04-14T11:18:11.088Z,7.78
2023-04-14T11:23:14.034Z,7.75
2023-04-14T11:28:15.331Z,6.70
2023-04-14T11:33:16.949Z,7.35
2023-04-14T11:38:18.333Z,5.30
2023-04-14T11:43:22.978Z,9.23
2023-04-14T11:48:24.448Z,5.75
2023-04-14T11:53:26.142Z,7.18
2023-04-14T11:58:28.778Z,5.18
2023-04-14T12:03:33.202Z,6.43
2023-04-14T12:08:34.757Z,4.13
2023-04-14T12:13:41.447Z,5.95
2023-04-14T12:18:44.093Z,5.82
2023-04-14T12:23:50.133Z,6.10
2023-04-14T12:28:57.984Z,4.63
2023-04-14T12:34:00.556Z,3.63
2023-04-14T12:39:06.663Z,4.97
2023-04-14T12:44:19.700Z,5.88
2023-04-14T12:49:38.599Z,17.27
2023-04-14T12:54:52.452Z,12.38
2023-04-14T12:59:53.806Z,3.63
2023-04-14T13:04:55.884Z,5.28
2023-04-14T13:09:57.561Z,7.77
2023-04-14T13:14:59.293Z,5.57
2023-04-14T13:20:00.922Z,5.20
2023-04-14T13:25:02.456Z,3.53
2023-04-14T13:30:04.274Z,4.75
2023-04-14T13:35:06.355Z,5.53
2023-04-14T13:40:08.733Z,4.70
2023-04-14T13:45:10.984Z,6.00
2023-04-14T13:50:12.533Z,5.72
2023-04-14T13:55:14.379Z,4.75
2023-04-14T14:00:16.283Z,4.50
2023-04-14T14:05:17.718Z,3.47
2023-04-14T14:10:19.180Z,4.72
2023-04-14T14:15:20.616Z,3.80
2023-04-14T14:20:21.981Z,3.55
2023-04-14T14:25:23.360Z,3.85
2023-04-14T14:30:24.817Z,13.57
2023-04-14T14:35:26.150Z,4.07
2023-04-14T14:40:28.829Z,3.60
2023-04-14T14:45:30.818Z,5.68
2023-04-14T14:50:33.204Z,4.27
2023-04-14T14:55:35.054Z,4.03
2023-04-14T15:00:36.871Z,4.43
2023-04-14T15:05:38.417Z,3.97
2023-04-14T15:10:40.476Z,4.10
2023-04-14T15:15:42.456Z,4.32
2023-04-14T15:20:43.891Z,3.85
2023-04-14T15:25:45.244Z,3.05
2023-04-14T15:30:47.140Z,3.58
2023-04-14T15:35:48.447Z,2.38
2023-04-14T15:40:49.878Z,4.05
2023-04-14T15:45:51.341Z,5.15
2023-04-14T15:50:52.684Z,3.13
2023-04-14T15:55:54.302Z,2.47
2023-04-14T16:00:55.620Z,3.10
2023-04-14T16:06:03.720Z,4.03
2023-04-14T16:11:05.199Z,4.25
2023-04-14T16:16:07.474Z,3.00
2023-04-14T16:21:08.892Z,4.55
2023-04-14T16:26:10.506Z,3.15
2023-04-14T16:31:12.109Z,2.65
2023-04-14T16:36:13.463Z,3.03
2023-04-14T16:41:14.745Z,2.75
2023-04-14T16:46:16.534Z,2.72
2023-04-14T16:51:17.951Z,4.28
2023-04-14T16:56:20.609Z,2.55
2023-04-14T17:01:22.372Z,2.15
2023-04-14T17:06:23.757Z,2.80
2023-04-14T17:11:25.260Z,1.70
2023-04-14T17:16:27.277Z,1.92
2023-04-14T17:21:28.689Z,4.63
2023-04-14T17:26:30.055Z,1.80
2023-04-14T17:31:31.466Z,2.10
2023-04-14T17:36:33.818Z,5.13
2023-04-14T17:41:35.442Z,5.55
2023-04-14T17:46:36.893Z,5.10
2023-04-14T17:51:38.313Z,5.25
2023-04-14T17:56:39.789Z,3.53
2023-04-14T18:01:41.752Z,4.40
2023-04-14T18:06:43.089Z,3.20
2023-04-14T18:11:44.592Z,2.75
2023-04-14T18:16:45.936Z,2.47
2023-04-14T18:21:48.201Z,2.20
2023-04-14T18:26:51.220Z,1.98
2023-04-14T18:31:52.962Z,3.08
2023-04-14T18:36:54.397Z,5.45
2023-04-14T18:41:55.682Z,4.43
2023-04-14T18:46:57.494Z,5.03
2023-04-14T18:51:58.815Z,4.43
2023-04-14T18:57:00.928Z,4.40
2023-04-14T19:02:02.481Z,5.40
2023-04-14T19:07:03.973Z,5.82
2023-04-14T19:12:05.959Z,4.80
2023-04-14T19:17:08.589Z,5.07
2023-04-14T19:22:10.005Z,4.03
2023-04-14T19:27:11.371Z,6.18
2023-04-14T19:32:12.795Z,5.97
2023-04-14T19:37:14.784Z,5.03
2023-04-14T19:42:16.163Z,5.10
2023-04-14T19:47:17.630Z,5.25
2023-04-14T19:52:19.112Z,5.93
2023-04-14T19:57:21.681Z,4.03
2023-04-14T20:02:29.848Z,4.32
2023-04-14T20:07:31.982Z,3.17
2023-04-14T20:12:34.584Z,2.67
2023-04-14T20:17:36.451Z,3.50
2023-04-14T20:22:40.926Z,3.53
2023-04-14T20:32:43.721Z,4.85
2023-04-14T20:37:45.034Z,5.78
2023-04-14T20:42:46.382Z,3.13
2023-04-14T20:47:48.587Z,8.40
2023-04-14T20:52:50.494Z,14.80
2023-04-14T20:57:52.906Z,11.20
2023-04-14T21:02:54.431Z,6.03
2023-04-14T21:07:56.343Z,6.70
2023-04-14T21:15:11.411Z,6.68
2023-04-14T21:18:21.667Z,6.18
2023-04-14T21:23:23.056Z,4.47
2023-04-14T21:28:24.492Z,4.63
2023-04-14T21:33:27.031Z,5.00
2023-04-14T21:38:28.353Z,5.07
2023-04-14T21:43:29.691Z,6.20
2023-04-14T21:48:31.173Z,4.22
2023-04-14T21:53:32.499Z,6.30
2023-04-14T21:58:33.866Z,4.07
2023-04-14T22:03:37.867Z,5.10
2023-04-14T22:08:40.616Z,5.97
2023-04-14T22:13:42.154Z,4.30
2023-04-14T22:18:43.534Z,7.00
2023-04-14T22:23:45.177Z,4.45
2023-04-14T22:28:46.854Z,4.35
2023-04-14T22:33:48.172Z,4.40
2023-04-14T22:38:49.497Z,4.63
2023-04-14T22:43:51.287Z,5.55
2023-04-14T22:48:52.629Z,4.38
2023-04-14T22:53:53.963Z,4.40
2023-04-14T22:58:59.018Z,4.68
2023-04-14T23:04:00.509Z,5.10
2023-04-14T23:09:02.217Z,2.33
2023-04-14T23:14:05.299Z,4.90
2023-04-14T23:19:06.654Z,2.97
2023-04-14T23:24:10.644Z,3.78
2023-04-14T23:29:11.979Z,5.43
2023-04-14T23:34:13.811Z,6.35
2023-04-14T23:39:15.164Z,4.75
2023-04-14T23:44:16.437Z,5.43
2023-04-14T23:49:24.356Z,4.93
2023-04-14T23:54:37.264Z,2.42
2023-04-14T23:59:38.597Z,3.58
